CheckWX is a tool to help pilots better visualize weather data.  It is not intended as a substitute for an official pre-flight weather briefing.

03:38:13 UTC

KAUS TAF
Austin-Bergstrom International Airport
Austin, Texas, USA
KAUS 032326Z 0400/0506 17005KT P6SM SCT250 FM041300 21007KT P6SM SKC

Jul-4@
00:00 UTC

Jul-4 @ 00:00 UTC

Jul-4@
13:00 UTC

Jul-4 @ 13:00 UTC

TAF KAUS 032326Z 0400/0506 17005KT P6SM SCT250

Expired

Wind
  • 170° at 5 KTS
Cloud Levels
  • Scattered at 25,000' AGL

Jul-4@
13:00 UTC

Jul-4 @ 13:00 UTC

Jul-5@
06:00 UTC

Jul-5 @ 06:00 UTC

FM041300 21007KT P6SM SKC

From

From Standard forecast or significant change

Wind
  • 210° at 7 KTS
Cloud Levels
  • Clear skies